createdAt,value
2023-01-19T00:00:48.590Z,99541.16
2023-01-19T00:03:29.043Z,99534.34
2023-01-19T00:05:57.147Z,99536.34
2023-01-19T00:08:25.476Z,99547.16
2023-01-19T00:10:53.582Z,99542.56
2023-01-19T00:13:22.043Z,99540.97
2023-01-19T00:15:50.194Z,99552.59
2023-01-19T00:18:18.467Z,99543.59
2023-01-19T00:20:48.346Z,99548.00
2023-01-19T00:23:17.320Z,99544.94
2023-01-19T00:25:45.329Z,99542.53
2023-01-19T00:28:15.154Z,99553.19
2023-01-19T00:30:43.764Z,99549.56
2023-01-19T00:33:13.655Z,99553.59
2023-01-19T00:35:42.457Z,99551.56
2023-01-19T00:38:12.641Z,99550.38
2023-01-19T00:40:40.758Z,99553.59
2023-01-19T00:43:09.014Z,99563.22
2023-01-19T00:45:37.102Z,99560.81
2023-01-19T00:48:05.724Z,99563.22
2023-01-19T00:50:34.051Z,99568.84
2023-01-19T00:53:03.178Z,99568.84
2023-01-19T00:55:33.308Z,99577.84
2023-01-19T00:58:02.794Z,99576.47
2023-01-19T01:00:31.142Z,99569.25
2023-01-19T01:02:59.868Z,99583.66
2023-01-19T01:05:28.197Z,99584.88
2023-01-19T01:07:56.429Z,99573.66
2023-01-19T01:10:27.193Z,99580.47
2023-01-19T01:12:57.702Z,99573.25
2023-01-19T01:15:27.677Z,99582.84
2023-01-19T01:17:56.432Z,99583.66
2023-01-19T01:20:26.933Z,99582.47
2023-01-19T01:22:55.450Z,99585.66
2023-01-19T01:25:25.823Z,99592.91
2023-01-19T01:27:55.959Z,99596.91
2023-01-19T01:30:24.647Z,99587.69
2023-01-19T01:32:52.904Z,99591.69
2023-01-19T01:35:21.042Z,99591.69
2023-01-19T01:37:49.452Z,99589.06
2023-01-19T01:40:18.787Z,99600.94
2023-01-19T01:42:47.026Z,99595.91
2023-01-19T01:45:33.039Z,99596.91
2023-01-19T01:48:05.431Z,99599.72
2023-01-19T01:50:35.340Z,99596.09
2023-01-19T01:53:08.219Z,99598.91
2023-01-19T01:55:38.912Z,99600.13
2023-01-19T01:58:09.463Z,99605.53
2023-01-19T02:00:53.286Z,99598.91
2023-01-19T02:03:22.365Z,99600.13
2023-01-19T02:05:50.555Z,99604.53
2023-01-19T02:08:39.125Z,99602.53
2023-01-19T02:11:24.703Z,99602.53
2023-01-19T02:13:53.106Z,99610.13
2023-01-19T02:16:22.526Z,99604.94
2023-01-19T02:18:50.980Z,99608.13
2023-01-19T02:21:21.071Z,99598.91
2023-01-19T02:23:53.224Z,99603.13
2023-01-19T02:26:22.914Z,99595.31
2023-01-19T02:28:53.809Z,99595.72
2023-01-19T02:31:21.775Z,99591.09
2023-01-19T02:33:50.183Z,99591.28
2023-01-19T02:36:19.203Z,99589.28
2023-01-19T02:38:48.613Z,99596.91
2023-01-19T02:41:20.690Z,99603.72
2023-01-19T02:43:49.871Z,99596.09
2023-01-19T02:46:17.992Z,99591.28
2023-01-19T02:48:46.253Z,99591.91
2023-01-19T02:51:16.891Z,99588.88
2023-01-19T02:54:12.175Z,99588.88
2023-01-19T02:56:51.988Z,99589.28
2023-01-19T02:59:30.002Z,99587.09
2023-01-19T03:02:06.193Z,99584.47
2023-01-19T03:04:41.732Z,99577.63
2023-01-19T03:07:12.771Z,99580.44
2023-01-19T03:09:44.199Z,99592.91
2023-01-19T03:12:23.521Z,99590.50
2023-01-19T03:14:53.710Z,99601.31
2023-01-19T03:17:22.422Z,99612.53
2023-01-19T03:19:51.559Z,99604.94
2023-01-19T03:22:23.119Z,99613.75
2023-01-19T03:24:51.772Z,99590.50
2023-01-19T03:27:25.155Z,99593.69
2023-01-19T03:29:56.248Z,99598.88
2023-01-19T03:32:29.629Z,99600.06
2023-01-19T03:35:00.805Z,99599.25
2023-01-19T03:37:29.553Z,99596.47
2023-01-19T03:39:57.812Z,99609.31
2023-01-19T03:42:28.656Z,99607.31
2023-01-19T03:44:57.215Z,99612.53
2023-01-19T03:47:26.420Z,99609.75
2023-01-19T03:49:55.316Z,99618.97
2023-01-19T03:52:30.250Z,99618.56
2023-01-19T03:54:58.495Z,99620.97
2023-01-19T03:57:27.897Z,99620.16
2023-01-19T03:59:56.758Z,99611.72
2023-01-19T04:02:25.167Z,99618.16
2023-01-19T04:04:53.552Z,99619.94
2023-01-19T04:07:21.610Z,99625.38
2023-01-19T04:09:49.793Z,99624.38
2023-01-19T04:12:17.740Z,99631.78
2023-01-19T04:14:47.459Z,99625.75
2023-01-19T04:17:16.032Z,99618.53
2023-01-19T04:19:45.084Z,99618.56
2023-01-19T04:22:13.076Z,99617.13
2023-01-19T04:24:41.289Z,99624.53
2023-01-19T04:27:09.240Z,99623.34
2023-01-19T04:29:37.439Z,99623.34
2023-01-19T04:32:06.999Z,99621.34
2023-01-19T04:34:35.329Z,99618.31
2023-01-19T04:37:03.329Z,99619.72
2023-01-19T04:39:31.593Z,99632.97
2023-01-19T04:42:00.732Z,99623.34
2023-01-19T04:44:29.082Z,99630.97
2023-01-19T04:46:57.078Z,99632.97
2023-01-19T04:49:26.843Z,99626.19
2023-01-19T04:51:55.066Z,99631.78
2023-01-19T04:54:23.439Z,99639.00
2023-01-19T04:56:51.530Z,99645.63
2023-01-19T04:59:20.395Z,99642.63
2023-01-19T05:01:48.494Z,99643.41
2023-01-19T05:04:17.278Z,99652.44
2023-01-19T05:06:46.823Z,99651.44
2023-01-19T05:09:15.551Z,99651.44
2023-01-19T05:11:43.543Z,99652.25
2023-01-19T05:14:11.895Z,99650.63
2023-01-19T05:16:39.864Z,99645.25
2023-01-19T05:19:08.115Z,99645.81
2023-01-19T05:21:36.127Z,99650.25
2023-01-19T05:24:06.042Z,99641.81
2023-01-19T05:26:34.341Z,99640.19
2023-01-19T05:29:02.701Z,99649.84
2023-01-19T05:31:30.789Z,99647.44
2023-01-19T05:33:59.060Z,99657.41
2023-01-19T05:36:27.504Z,99658.56
2023-01-19T05:38:55.743Z,99652.13
2023-01-19T05:41:25.095Z,99657.75
2023-01-19T05:43:53.290Z,99659.72
2023-01-19T05:46:21.335Z,99662.94
2023-01-19T05:48:49.603Z,99655.91
2023-01-19T05:51:17.893Z,99644.13
2023-01-19T05:53:46.138Z,99648.94
2023-01-19T05:56:14.070Z,99657.16
2023-01-19T05:58:43.652Z,99654.78
2023-01-19T06:01:11.741Z,99658.22
2023-01-19T06:03:40.931Z,99657.81
2023-01-19T06:06:09.070Z,99657.81
2023-01-19T06:08:37.341Z,99658.59
2023-01-19T06:11:06.846Z,99649.81
2023-01-19T06:13:35.249Z,99655.81
2023-01-19T06:16:04.852Z,99662.25
2023-01-19T06:18:33.402Z,99657.25
2023-01-19T06:21:04.559Z,99665.47
2023-01-19T06:23:34.029Z,99657.66
2023-01-19T06:26:02.041Z,99663.06
2023-01-19T06:28:30.400Z,99661.22
2023-01-19T06:30:58.592Z,99655.78
2023-01-19T06:33:28.792Z,99674.63
2023-01-19T06:35:57.215Z,99680.28
2023-01-19T06:38:25.654Z,99678.66
2023-01-19T06:40:54.779Z,99683.84
2023-01-19T06:43:23.235Z,99681.84
2023-01-19T06:45:51.626Z,99691.50
2023-01-19T06:48:19.938Z,99688.28
2023-01-19T06:50:49.887Z,99704.31
2023-01-19T06:53:20.657Z,99707.16
2023-01-19T06:55:49.128Z,99708.31
2023-01-19T06:58:17.582Z,99709.97
2023-01-19T07:00:45.661Z,99711.16
2023-01-19T07:03:20.610Z,99711.16
2023-01-19T07:05:52.416Z,99716.41
2023-01-19T07:08:20.806Z,99714.41
2023-01-19T07:11:26.056Z,99709.19
2023-01-19T07:13:38.381Z,99714.41
2023-01-19T07:16:08.236Z,99710.00
2023-01-19T07:18:37.209Z,99720.03
2023-01-19T07:21:07.622Z,99715.22
2023-01-19T07:23:36.223Z,99709.63
2023-01-19T07:26:04.488Z,99710.59
2023-01-19T07:28:32.956Z,99717.22
2023-01-19T07:31:01.145Z,99714.22
2023-01-19T07:33:29.759Z,99722.84
2023-01-19T07:35:58.455Z,99727.66
2023-01-19T07:38:28.162Z,99731.09
2023-01-19T07:41:01.197Z,99719.44
2023-01-19T07:43:29.444Z,99734.06
2023-01-19T07:45:57.972Z,99732.88
2023-01-19T07:48:26.315Z,99732.06
2023-01-19T07:50:54.651Z,99728.28
2023-01-19T07:53:23.137Z,99727.66
2023-01-19T07:55:56.669Z,99736.28
2023-01-19T07:58:24.964Z,99732.88
2023-01-19T08:00:53.062Z,99743.28
2023-01-19T08:03:21.373Z,99743.09
2023-01-19T08:05:51.771Z,99750.09
2023-01-19T08:08:20.263Z,99759.34
2023-01-19T08:10:51.128Z,99764.56
2023-01-19T08:13:20.866Z,99770.41
2023-01-19T08:15:50.508Z,99769.81
2023-01-19T08:18:18.820Z,99774.81
2023-01-19T08:20:46.951Z,99767.41
2023-01-19T08:23:15.182Z,99767.59
2023-01-19T08:25:45.225Z,99774.00
2023-01-19T08:28:14.868Z,99765.00
2023-01-19T08:30:45.322Z,99767.41
2023-01-19T08:33:14.174Z,99766.59
2023-01-19T08:35:44.239Z,99767.81
2023-01-19T08:38:12.543Z,99768.78
2023-01-19T08:40:42.026Z,99769.81
2023-01-19T08:43:12.733Z,99772.63
2023-01-19T08:45:46.414Z,99775.81
2023-01-19T08:48:16.859Z,99768.59
2023-01-19T08:50:46.607Z,99771.00
2023-01-19T08:53:15.458Z,99766.56
2023-01-19T08:55:43.755Z,99768.13
2023-01-19T08:58:12.121Z,99755.03
2023-01-19T09:00:40.942Z,99754.38
2023-01-19T09:03:11.512Z,99758.00
2023-01-19T09:05:41.086Z,99752.56
2023-01-19T09:08:11.606Z,99755.38
2023-01-19T09:10:40.817Z,99758.00
2023-01-19T09:13:10.867Z,99761.13
2023-01-19T09:15:39.536Z,99761.50
2023-01-19T09:18:10.120Z,99764.75
2023-01-19T09:20:39.101Z,99760.09
2023-01-19T09:23:10.571Z,99766.53
2023-01-19T09:25:38.968Z,99767.34
2023-01-19T09:28:09.153Z,99777.78
2023-01-19T09:30:37.719Z,99772.16
2023-01-19T09:33:07.439Z,99778.78
2023-01-19T09:35:36.234Z,99777.78
2023-01-19T09:38:04.907Z,99784.22
2023-01-19T09:40:34.401Z,99783.41
2023-01-19T09:43:13.507Z,99779.78
2023-01-19T09:45:46.946Z,99783.81
2023-01-19T09:48:33.207Z,99774.53
2023-01-19T09:51:03.631Z,99784.59
2023-01-19T09:53:43.380Z,99770.34
2023-01-19T09:56:14.942Z,99782.59
2023-01-19T09:58:43.385Z,99781.19
2023-01-19T10:01:23.586Z,99767.75
2023-01-19T10:04:03.783Z,99775.72
2023-01-19T10:06:31.883Z,99760.88
2023-01-19T10:09:05.192Z,99774.13
2023-01-19T10:11:52.091Z,99774.34
2023-01-19T10:14:27.306Z,99774.91
2023-01-19T10:17:02.398Z,99779.94
2023-01-19T10:19:33.605Z,99780.53
2023-01-19T10:22:05.968Z,99782.53
2023-01-19T10:24:39.779Z,99775.09
2023-01-19T10:27:14.612Z,99775.91
2023-01-19T10:29:42.999Z,99779.31
2023-01-19T10:32:13.679Z,99782.16
2023-01-19T10:34:42.248Z,99780.91
2023-01-19T10:37:18.380Z,99760.84
2023-01-19T10:39:47.291Z,99779.22
2023-01-19T10:42:17.493Z,99777.75
2023-01-19T10:44:46.209Z,99789.88
2023-01-19T10:47:17.515Z,99780.44
2023-01-19T10:49:45.945Z,99777.84
2023-01-19T10:52:22.240Z,99779.56
2023-01-19T10:54:50.523Z,99788.66
2023-01-19T10:57:27.781Z,99786.41
2023-01-19T10:59:56.202Z,99788.47
2023-01-19T11:02:26.933Z,99791.00
2023-01-19T11:04:57.285Z,99788.38
2023-01-19T11:07:29.218Z,99788.66
2023-01-19T11:10:21.092Z,99783.28
2023-01-19T11:12:57.395Z,99781.09
2023-01-19T11:15:26.884Z,99796.16
2023-01-19T11:17:55.319Z,99791.00
2023-01-19T11:20:25.487Z,99790.31
2023-01-19T11:23:05.482Z,99793.91
2023-01-19T11:25:35.728Z,99783.06
2023-01-19T11:28:05.511Z,99791.47
2023-01-19T11:30:35.999Z,99775.84
2023-01-19T11:33:05.745Z,99785.28
2023-01-19T11:35:39.375Z,99771.31
2023-01-19T11:38:09.215Z,99779.19
2023-01-19T11:40:37.504Z,99773.16
2023-01-19T11:43:06.838Z,99769.38
2023-01-19T11:45:35.829Z,99766.34
2023-01-19T11:48:05.714Z,99777.63
2023-01-19T11:50:36.580Z,99764.69
2023-01-19T11:53:08.049Z,99753.53
2023-01-19T11:55:39.131Z,99761.22
2023-01-19T11:58:10.264Z,99771.78
2023-01-19T12:00:42.461Z,99767.34
2023-01-19T12:03:14.868Z,99768.97
2023-01-19T12:05:48.176Z,99763.91
2023-01-19T12:08:19.575Z,99764.88
2023-01-19T12:10:48.642Z,99741.16
2023-01-19T12:13:22.698Z,99766.28
2023-01-19T12:15:54.952Z,99758.78
2023-01-19T12:18:24.380Z,99751.91
2023-01-19T12:20:54.057Z,99755.13
2023-01-19T12:23:37.074Z,99758.72
2023-01-19T12:26:17.379Z,99755.38
2023-01-19T12:28:49.318Z,99749.63
2023-01-19T12:31:19.284Z,99754.72
2023-01-19T12:33:47.783Z,99742.97
2023-01-19T12:36:40.061Z,99744.56
2023-01-19T12:39:16.772Z,99742.28
2023-01-19T12:41:45.822Z,99736.03
2023-01-19T12:44:22.447Z,99743.31
2023-01-19T12:46:54.452Z,99743.03
2023-01-19T12:49:27.401Z,99734.00
2023-01-19T12:52:12.414Z,99733.78
2023-01-19T12:54:43.009Z,99733.63
2023-01-19T12:57:19.362Z,99733.88
2023-01-19T12:59:57.278Z,99728.22
2023-01-19T13:02:45.157Z,99737.03
2023-01-19T13:05:25.408Z,99727.91
2023-01-19T13:08:17.984Z,99730.50
2023-01-19T13:11:20.625Z,99736.78
2023-01-19T13:14:30.452Z,99735.50
2023-01-19T13:17:13.960Z,99738.19
2023-01-19T13:19:48.831Z,99728.88
2023-01-19T13:23:04.687Z,99736.03
2023-01-19T13:25:35.435Z,99742.88
2023-01-19T13:28:09.927Z,99738.38
2023-01-19T13:30:41.235Z,99741.22
2023-01-19T13:33:23.474Z,99752.06
2023-01-19T13:35:54.197Z,99738.97
2023-01-19T13:38:23.863Z,99731.09
2023-01-19T13:40:53.041Z,99741.09
2023-01-19T13:43:26.600Z,99749.97
2023-01-19T13:45:55.251Z,99751.22
2023-01-19T13:48:25.825Z,99748.72
2023-01-19T13:50:59.130Z,99751.56
2023-01-19T13:53:27.330Z,99749.06
2023-01-19T13:56:14.115Z,99750.78
2023-01-19T13:58:42.219Z,99749.47
2023-01-19T14:01:22.022Z,99753.72
2023-01-19T14:03:53.055Z,99750.78
2023-01-19T14:06:36.202Z,99753.63
2023-01-19T14:09:16.969Z,99745.53
2023-01-19T14:11:46.397Z,99759.00
2023-01-19T14:14:25.343Z,99754.03
2023-01-19T14:16:53.957Z,99751.94
2023-01-19T14:19:23.343Z,99752.97
2023-01-19T14:22:02.650Z,99750.63
2023-01-19T14:24:32.881Z,99756.50
2023-01-19T14:27:19.781Z,99759.69
2023-01-19T14:29:50.435Z,99759.63
2023-01-19T14:32:20.377Z,99761.69
2023-01-19T14:34:51.354Z,99770.84
2023-01-19T14:37:22.833Z,99757.00
2023-01-19T14:39:52.402Z,99766.16
2023-01-19T14:42:24.987Z,99771.84
2023-01-19T14:44:54.487Z,99774.44
2023-01-19T14:47:33.316Z,99776.63
2023-01-19T14:50:07.430Z,99757.78
2023-01-19T14:52:39.644Z,99767.59
2023-01-19T14:55:16.290Z,99770.22
2023-01-19T14:57:44.592Z,99773.44
2023-01-19T15:00:17.359Z,99781.44
2023-01-19T15:02:46.548Z,99781.44
2023-01-19T15:05:17.066Z,99780.31
2023-01-19T15:07:46.805Z,99776.47
2023-01-19T15:10:21.547Z,99784.09
2023-01-19T15:12:50.424Z,99788.16
2023-01-19T15:15:19.749Z,99784.22
2023-01-19T15:17:48.188Z,99780.75
2023-01-19T15:20:19.511Z,99784.97
2023-01-19T15:22:48.387Z,99783.78
2023-01-19T15:25:17.934Z,99785.38
2023-01-19T15:27:46.852Z,99787.00
2023-01-19T15:30:17.286Z,99786.25
2023-01-19T15:32:45.917Z,99792.84
2023-01-19T15:35:15.610Z,99779.75
2023-01-19T15:37:45.532Z,99786.25
2023-01-19T15:40:14.562Z,99785.03
2023-01-19T15:42:43.374Z,99783.47
2023-01-19T15:45:28.878Z,99784.31
2023-01-19T15:47:57.171Z,99791.47
2023-01-19T15:50:26.241Z,99791.03
2023-01-19T15:52:55.951Z,99792.81
2023-01-19T15:55:24.366Z,99794.78
2023-01-19T15:57:52.711Z,99783.47
2023-01-19T16:00:20.910Z,99798.38
2023-01-19T16:02:51.886Z,99804.88
2023-01-19T16:05:21.605Z,99802.06
2023-01-19T16:07:52.484Z,99807.63
2023-01-19T16:10:22.184Z,99814.53
2023-01-19T16:12:50.408Z,99811.19
2023-01-19T16:15:18.951Z,99813.34
2023-01-19T16:17:47.189Z,99810.28
2023-01-19T16:20:15.658Z,99809.63
2023-01-19T16:22:44.213Z,99811.00
2023-01-19T16:25:12.737Z,99824.69
2023-01-19T16:27:42.311Z,99821.56
2023-01-19T16:30:12.869Z,99831.69
2023-01-19T16:32:41.269Z,99819.69
2023-01-19T16:35:09.662Z,99820.13
2023-01-19T16:37:37.944Z,99833.41
2023-01-19T16:40:06.944Z,99827.97
2023-01-19T16:42:35.224Z,99831.63
2023-01-19T16:45:05.207Z,99827.25
2023-01-19T16:47:33.547Z,99829.03
2023-01-19T16:50:01.498Z,99830.81
2023-01-19T16:52:29.727Z,99835.09
2023-01-19T16:54:57.864Z,99833.88
2023-01-19T16:57:26.205Z,99837.09
2023-01-19T16:59:54.183Z,99842.50
2023-01-19T17:02:23.775Z,99847.16
2023-01-19T17:04:51.981Z,99840.72
2023-01-19T17:07:20.422Z,99842.72
2023-01-19T17:09:48.398Z,99840.66
2023-01-19T17:12:16.575Z,99839.19
2023-01-19T17:14:47.144Z,99838.50
2023-01-19T17:17:15.570Z,99838.19
2023-01-19T17:19:45.745Z,99844.84
2023-01-19T17:22:14.980Z,99842.81
2023-01-19T17:24:43.594Z,99845.38
2023-01-19T17:27:11.824Z,99849.59
2023-01-19T17:29:39.805Z,99849.00
2023-01-19T17:32:08.044Z,99855.59
2023-01-19T17:34:36.049Z,99848.41
2023-01-19T17:37:05.711Z,99848.34
2023-01-19T17:39:33.729Z,99851.47
2023-01-19T17:42:01.973Z,99841.81
2023-01-19T17:44:29.967Z,99839.88
2023-01-19T17:46:59.967Z,99857.53
2023-01-19T17:49:28.336Z,99854.13
2023-01-19T17:51:56.629Z,99851.53
2023-01-19T17:54:26.024Z,99853.06
2023-01-19T17:56:56.077Z,99852.28
2023-01-19T17:59:24.119Z,99852.28
2023-01-19T18:01:52.464Z,99857.53
2023-01-19T18:04:20.549Z,99863.63
2023-01-19T18:06:50.042Z,99862.75
2023-01-19T18:09:18.015Z,99865.53
2023-01-19T18:11:47.642Z,99868.50
2023-01-19T18:14:15.790Z,99866.03
2023-01-19T18:16:44.014Z,99863.97
2023-01-19T18:19:12.143Z,99861.16
2023-01-19T18:21:40.441Z,99866.41
2023-01-19T18:24:08.770Z,99871.22
2023-01-19T18:26:37.568Z,99861.16
2023-01-19T18:29:06.896Z,99874.09
2023-01-19T18:31:35.324Z,99864.72
2023-01-19T18:34:04.162Z,99863.91
2023-01-19T18:36:34.081Z,99865.97
2023-01-19T18:39:02.458Z,99868.41
2023-01-19T18:41:30.944Z,99870.06
2023-01-19T18:43:59.589Z,99870.88
2023-01-19T18:46:29.356Z,99868.00
2023-01-19T18:48:57.720Z,99864.78
2023-01-19T18:51:26.026Z,99856.72
2023-01-19T18:53:54.045Z,99868.00
2023-01-19T18:56:22.464Z,99860.91
2023-01-19T18:58:50.645Z,99866.34
2023-01-19T19:01:22.440Z,99864.72
2023-01-19T19:03:52.648Z,99861.53
2023-01-19T19:06:21.779Z,99853.88
2023-01-19T19:08:50.675Z,99869.53
2023-01-19T19:11:19.789Z,99865.72
2023-01-19T19:13:51.862Z,99861.91
2023-01-19T19:16:20.168Z,99861.84
2023-01-19T19:18:49.927Z,99862.25
2023-01-19T19:21:22.583Z,99867.91
2023-01-19T19:23:51.441Z,99870.31
2023-01-19T19:26:19.875Z,99876.78
2023-01-19T19:28:48.247Z,99870.34
2023-01-19T19:31:20.284Z,99867.03
2023-01-19T19:33:50.652Z,99865.88
2023-01-19T19:36:21.215Z,99872.00
2023-01-19T19:38:49.322Z,99876.25
2023-01-19T19:41:19.456Z,99873.00
2023-01-19T19:43:47.826Z,99880.69
2023-01-19T19:46:17.744Z,99882.59
2023-01-19T19:48:45.764Z,99881.97
2023-01-19T19:51:19.558Z,99883.31
2023-01-19T19:53:51.490Z,99888.28
2023-01-19T19:56:21.231Z,99888.28
2023-01-19T19:58:49.930Z,99880.84
2023-01-19T20:01:20.385Z,99893.34
2023-01-19T20:03:48.949Z,99883.75
2023-01-19T20:06:20.716Z,99885.59
2023-01-19T20:08:50.717Z,99892.88
2023-01-19T20:11:21.758Z,99895.16
2023-01-19T20:13:50.694Z,99894.38
2023-01-19T20:16:20.560Z,99895.91
2023-01-19T20:18:51.353Z,99897.09
2023-01-19T20:21:21.212Z,99893.09
2023-01-19T20:23:52.839Z,99889.88
2023-01-19T20:26:24.884Z,99899.13
2023-01-19T20:28:52.955Z,99898.69
2023-01-19T20:31:22.832Z,99898.69
2023-01-19T20:33:52.335Z,99901.47
2023-01-19T20:36:21.928Z,99899.13
2023-01-19T20:38:51.532Z,99897.53
2023-01-19T20:41:21.065Z,99900.00
2023-01-19T20:43:49.191Z,99900.00
2023-01-19T20:46:17.706Z,99898.53
2023-01-19T20:48:50.612Z,99896.13
2023-01-19T20:51:20.132Z,99904.81
2023-01-19T20:53:48.760Z,99896.34
2023-01-19T20:56:18.423Z,99895.31
2023-01-19T20:58:46.471Z,99900.00
2023-01-19T21:01:17.109Z,99892.34
2023-01-19T21:03:45.610Z,99903.94
2023-01-19T21:06:14.401Z,99905.69
2023-01-19T21:08:42.759Z,99907.47
2023-01-19T21:11:13.130Z,99910.00
2023-01-19T21:13:42.689Z,99904.75
2023-01-19T21:16:13.082Z,99913.25
2023-01-19T21:18:46.004Z,99908.03
2023-01-19T21:21:28.881Z,99917.25
2023-01-19T21:23:57.769Z,99919.00
2023-01-19T21:26:26.066Z,99919.66
2023-01-19T21:28:55.426Z,99922.53
2023-01-19T21:31:27.107Z,99920.19
2023-01-19T21:33:55.512Z,99927.00
2023-01-19T21:36:24.532Z,99923.72
2023-01-19T21:38:52.769Z,99919.28
2023-01-19T21:41:21.296Z,99911.63
2023-01-19T21:43:49.276Z,99931.59
2023-01-19T21:46:21.136Z,99929.09
2023-01-19T21:48:49.171Z,99936.25
2023-01-19T21:51:17.451Z,99934.81
2023-01-19T21:53:45.427Z,99941.47
2023-01-19T21:56:13.832Z,99948.31
2023-01-19T21:58:41.829Z,99945.53
2023-01-19T22:01:12.578Z,99948.75
2023-01-19T22:03:43.011Z,99952.22
2023-01-19T22:06:13.021Z,99956.94
2023-01-19T22:08:41.486Z,99940.19
2023-01-19T22:11:11.877Z,99955.66
2023-01-19T22:13:40.162Z,99949.31
2023-01-19T22:16:10.325Z,99957.34
2023-01-19T22:18:39.586Z,99954.25
2023-01-19T22:21:10.246Z,99963.88
2023-01-19T22:23:38.752Z,99966.63
2023-01-19T22:26:07.794Z,99964.25
2023-01-19T22:28:35.937Z,99978.84
2023-01-19T22:31:05.887Z,99974.63
2023-01-19T22:33:34.130Z,99973.97
2023-01-19T22:36:15.985Z,99978.50
2023-01-19T22:38:44.999Z,99973.72
2023-01-19T22:41:14.837Z,99981.38
2023-01-19T22:43:43.391Z,99972.28
2023-01-19T22:46:12.269Z,99979.28
2023-01-19T22:48:41.383Z,99981.34
2023-01-19T22:51:09.952Z,99980.91
2023-01-19T22:53:39.292Z,99977.28
2023-01-19T22:56:11.952Z,99984.91
2023-01-19T22:58:41.232Z,99976.81
2023-01-19T23:01:10.796Z,99981.44
2023-01-19T23:03:38.975Z,99984.44
2023-01-19T23:06:09.072Z,99974.84
2023-01-19T23:08:38.895Z,99981.81
2023-01-19T23:11:08.266Z,99978.19
2023-01-19T23:13:36.475Z,99979.19
2023-01-19T23:16:05.411Z,99987.22
2023-01-19T23:18:33.567Z,99985.25
2023-01-19T23:21:04.828Z,99986.09
2023-01-19T23:23:33.373Z,99967.59
2023-01-19T23:26:04.251Z,99981.69
2023-01-19T23:28:33.954Z,99986.53
2023-01-19T23:31:02.383Z,99986.53
2023-01-19T23:33:30.430Z,99985.31
2023-01-19T23:35:58.687Z,99997.75
2023-01-19T23:38:26.639Z,99987.28
2023-01-19T23:40:57.874Z,99980.13
2023-01-19T23:43:27.247Z,99991.19
2023-01-19T23:45:55.536Z,99992.22
2023-01-19T23:48:23.527Z,99997.47
2023-01-19T23:50:51.883Z,99999.41
2023-01-19T23:53:19.938Z,100002.47
2023-01-19T23:55:48.195Z,100004.25
2023-01-19T23:58:16.171Z,100005.47
